Little Lake, CA (93542)

6:05 PM PST on February 08, 2016 (GMT -0800)
RAWS | | Change Station
CLOSE
Current Station
Personal Weather Station
Location: Little Lake, CA
Elevation: 4149 ft
Nearby Weather Stations

Elev 4149 ft 35.87 °N, 117.92 °W | Updated 39 minutes ago

Clear
Clear
67.0 °F
Feels Like 67.0 °F
N
23.0
Wind Variable Wind from North
Gusts 30.0 mph

Today
High -- | Low -- °F
--% Chance of Precip.
Yesterday
High -- | Low -- °F
Precip. -- in
Pressure 30.28 in
Visibility 10.0 miles
Clouds Clear
Dew Point 16.0 °F
Humidity 14%
Rainfall in
Snow Depth Not available.
6:46 AM 5:25 PM
New Moon, 0% visible
METAR KNID 090156Z 11008KT 10SM CLR 18/M06 A3028 RMK AO2 SLP252 T01831056 $
Pressure 30.28 in
Visibility 10.0 miles
Clouds Clear
Dew Point 16.0 °F
Humidity 14%
Rainfall in
Snow Depth Not available.
6:46 AM 5:25 PM
New Moon, 0% visible
METAR KNID 090156Z 11008KT 10SM CLR 18/M06 A3028 RMK AO2 SLP252 T01831056 $

10-Day Weather Forecast

Almanac

Astronomy

Feb. 08, 2016 Rise Set
Actual Time
Civil Twilight
Nautical Twilight
Astronomical Twilight
Moon
Length of Visible Light
Length of Day
Tomorrow will be .
, % of the Moon is Illuminated

Today's Extremes

State Highs State Lows

Community

WunderPhotos

Upload Photos

1,891,527 photos uploaded!

WunderBlog® & News

Nearby

Air Quality

  Air Quality AQ Index Pollutant
Not available.

Snow Depth

Station Depth Elevation

Earthquake Activity

City Distance Mag. Time & Date
Minimum magnitude displayed is 2.5.

Coastal Water Temperatures

Place Temperature

Stations

Nearby Weather Stations

Station Location Temp. Windchill Dew Point Humidity Wind Precip. Elev Updated Type
                   

Watches & Warnings

There are currently no watches in effect.